sensor_id;sensor_type;location;lat;lon;timestamp;P1;durP1;ratioP1;P2;durP2;ratioP2
31262;SDS011;17892;52.080;9.006;2023-04-15T00:00:38;3.75;;;1.98;;
31262;SDS011;17892;52.080;9.006;2023-04-15T00:03:04;3.13;;;1.65;;
31262;SDS011;17892;52.080;9.006;2023-04-15T00:05:30;3.17;;;1.70;;
31262;SDS011;17892;52.080;9.006;2023-04-15T00:07:56;3.95;;;2.22;;
31262;SDS011;17892;52.080;9.006;2023-04-15T00:10:23;3.47;;;1.77;;
31262;SDS011;17892;52.080;9.006;2023-04-15T00:12:50;4.47;;;2.15;;
31262;SDS011;17892;52.080;9.006;2023-04-15T00:15:16;5.55;;;2.22;;
31262;SDS011;17892;52.080;9.006;2023-04-15T00:17:42;4.45;;;2.40;;
31262;SDS011;17892;52.080;9.006;2023-04-15T00:20:08;4.40;;;2.03;;
31262;SDS011;17892;52.080;9.006;2023-04-15T00:22:34;3.47;;;1.83;;
31262;SDS011;17892;52.080;9.006;2023-04-15T00:25:00;3.60;;;1.88;;
31262;SDS011;17892;52.080;9.006;2023-04-15T00:27:27;3.50;;;1.88;;
31262;SDS011;17892;52.080;9.006;2023-04-15T00:29:53;4.15;;;2.00;;
31262;SDS011;17892;52.080;9.006;2023-04-15T00:32:19;3.80;;;1.98;;
31262;SDS011;17892;52.080;9.006;2023-04-15T00:34:45;4.22;;;2.33;;
31262;SDS011;17892;52.080;9.006;2023-04-15T00:37:11;4.43;;;2.53;;
31262;SDS011;17892;52.080;9.006;2023-04-15T00:39:36;4.00;;;2.35;;
31262;SDS011;17892;52.080;9.006;2023-04-15T00:42:05;4.55;;;2.40;;
31262;SDS011;17892;52.080;9.006;2023-04-15T00:44:31;4.75;;;2.17;;
31262;SDS011;17892;52.080;9.006;2023-04-15T00:47:00;3.95;;;2.03;;
31262;SDS011;17892;52.080;9.006;2023-04-15T00:49:29;3.60;;;2.05;;
31262;SDS011;17892;52.080;9.006;2023-04-15T00:51:55;4.50;;;2.75;;
31262;SDS011;17892;52.080;9.006;2023-04-15T00:54:21;3.80;;;2.13;;
31262;SDS011;17892;52.080;9.006;2023-04-15T00:56:47;5.35;;;2.83;;
31262;SDS011;17892;52.080;9.006;2023-04-15T00:59:13;4.63;;;2.92;;
31262;SDS011;17892;52.080;9.006;2023-04-15T01:01:39;4.60;;;2.42;;
31262;SDS011;17892;52.080;9.006;2023-04-15T01:04:06;4.95;;;3.08;;
31262;SDS011;17892;52.080;9.006;2023-04-15T01:06:34;4.20;;;2.50;;
31262;SDS011;17892;52.080;9.006;2023-04-15T01:08:59;4.57;;;2.80;;
31262;SDS011;17892;52.080;9.006;2023-04-15T01:11:25;5.40;;;3.08;;
31262;SDS011;17892;52.080;9.006;2023-04-15T01:13:52;4.40;;;2.72;;
31262;SDS011;17892;52.080;9.006;2023-04-15T01:16:21;4.78;;;2.60;;
31262;SDS011;17892;52.080;9.006;2023-04-15T01:18:47;6.07;;;2.45;;
31262;SDS011;17892;52.080;9.006;2023-04-15T01:21:13;6.07;;;3.10;;
31262;SDS011;17892;52.080;9.006;2023-04-15T01:23:39;5.35;;;2.97;;
31262;SDS011;17892;52.080;9.006;2023-04-15T01:26:06;5.55;;;3.30;;
31262;SDS011;17892;52.080;9.006;2023-04-15T01:28:33;5.97;;;3.53;;
31262;SDS011;17892;52.080;9.006;2023-04-15T01:31:07;6.45;;;3.58;;
31262;SDS011;17892;52.080;9.006;2023-04-15T01:33:38;4.75;;;3.03;;
31262;SDS011;17892;52.080;9.006;2023-04-15T01:36:06;5.68;;;3.20;;
31262;SDS011;17892;52.080;9.006;2023-04-15T01:38:34;6.15;;;3.50;;
31262;SDS011;17892;52.080;9.006;2023-04-15T01:41:01;6.25;;;3.53;;
31262;SDS011;17892;52.080;9.006;2023-04-15T01:43:32;5.25;;;3.28;;
31262;SDS011;17892;52.080;9.006;2023-04-15T01:46:00;6.28;;;3.85;;
31262;SDS011;17892;52.080;9.006;2023-04-15T01:48:25;5.95;;;3.67;;
31262;SDS011;17892;52.080;9.006;2023-04-15T01:50:52;6.63;;;3.63;;
31262;SDS011;17892;52.080;9.006;2023-04-15T01:53:18;7.55;;;3.47;;
31262;SDS011;17892;52.080;9.006;2023-04-15T01:55:44;5.25;;;3.10;;
31262;SDS011;17892;52.080;9.006;2023-04-15T01:58:10;5.32;;;3.55;;
31262;SDS011;17892;52.080;9.006;2023-04-15T02:00:36;5.65;;;3.80;;
31262;SDS011;17892;52.080;9.006;2023-04-15T02:03:02;6.28;;;3.85;;
31262;SDS011;17892;52.080;9.006;2023-04-15T02:05:28;6.30;;;3.70;;
31262;SDS011;17892;52.080;9.006;2023-04-15T02:07:54;5.85;;;3.58;;
31262;SDS011;17892;52.080;9.006;2023-04-15T02:10:19;5.05;;;2.70;;
31262;SDS011;17892;52.080;9.006;2023-04-15T02:12:45;5.47;;;3.25;;
31262;SDS011;17892;52.080;9.006;2023-04-15T02:15:11;5.82;;;3.95;;
31262;SDS011;17892;52.080;9.006;2023-04-15T02:17:37;6.90;;;3.55;;
31262;SDS011;17892;52.080;9.006;2023-04-15T02:20:03;5.50;;;3.42;;
31262;SDS011;17892;52.080;9.006;2023-04-15T02:22:32;6.60;;;4.10;;
31262;SDS011;17892;52.080;9.006;2023-04-15T02:24:58;6.22;;;3.70;;
31262;SDS011;17892;52.080;9.006;2023-04-15T02:27:24;6.32;;;3.97;;
31262;SDS011;17892;52.080;9.006;2023-04-15T02:29:50;5.50;;;3.50;;
31262;SDS011;17892;52.080;9.006;2023-04-15T02:32:16;6.93;;;3.95;;
31262;SDS011;17892;52.080;9.006;2023-04-15T02:34:42;6.57;;;3.78;;
31262;SDS011;17892;52.080;9.006;2023-04-15T02:37:08;6.55;;;3.95;;
31262;SDS011;17892;52.080;9.006;2023-04-15T02:39:35;5.88;;;3.75;;
31262;SDS011;17892;52.080;9.006;2023-04-15T02:42:02;6.65;;;3.55;;
31262;SDS011;17892;52.080;9.006;2023-04-15T02:44:29;6.07;;;3.78;;
31262;SDS011;17892;52.080;9.006;2023-04-15T02:46:55;6.15;;;3.83;;
31262;SDS011;17892;52.080;9.006;2023-04-15T02:49:22;6.65;;;3.75;;
31262;SDS011;17892;52.080;9.006;2023-04-15T02:51:48;6.78;;;3.55;;
31262;SDS011;17892;52.080;9.006;2023-04-15T02:54:19;6.80;;;4.15;;
31262;SDS011;17892;52.080;9.006;2023-04-15T02:56:47;5.75;;;3.33;;
31262;SDS011;17892;52.080;9.006;2023-04-15T02:59:13;5.40;;;3.60;;
31262;SDS011;17892;52.080;9.006;2023-04-15T03:01:39;7.18;;;4.43;;
31262;SDS011;17892;52.080;9.006;2023-04-15T03:04:05;8.13;;;4.60;;
31262;SDS011;17892;52.080;9.006;2023-04-15T03:06:32;7.22;;;4.45;;
31262;SDS011;17892;52.080;9.006;2023-04-15T03:08:59;6.82;;;4.40;;
31262;SDS011;17892;52.080;9.006;2023-04-15T03:11:26;6.38;;;4.13;;
31262;SDS011;17892;52.080;9.006;2023-04-15T03:16:21;6.45;;;3.42;;
31262;SDS011;17892;52.080;9.006;2023-04-15T03:18:47;6.25;;;3.80;;
31262;SDS011;17892;52.080;9.006;2023-04-15T03:21:13;6.95;;;4.45;;
31262;SDS011;17892;52.080;9.006;2023-04-15T03:23:38;6.60;;;4.15;;
31262;SDS011;17892;52.080;9.006;2023-04-15T03:26:04;7.35;;;4.10;;
31262;SDS011;17892;52.080;9.006;2023-04-15T03:28:30;6.90;;;4.22;;
31262;SDS011;17892;52.080;9.006;2023-04-15T03:30:56;7.15;;;4.30;;
31262;SDS011;17892;52.080;9.006;2023-04-15T03:33:22;6.55;;;3.70;;
31262;SDS011;17892;52.080;9.006;2023-04-15T03:35:49;7.47;;;4.10;;
31262;SDS011;17892;52.080;9.006;2023-04-15T03:38:15;7.03;;;4.22;;
31262;SDS011;17892;52.080;9.006;2023-04-15T03:40:42;7.03;;;4.35;;
31262;SDS011;17892;52.080;9.006;2023-04-15T03:43:08;5.80;;;3.55;;
31262;SDS011;17892;52.080;9.006;2023-04-15T03:45:34;8.02;;;4.20;;
31262;SDS011;17892;52.080;9.006;2023-04-15T03:47:59;8.15;;;4.30;;
31262;SDS011;17892;52.080;9.006;2023-04-15T03:50:25;8.48;;;5.10;;
31262;SDS011;17892;52.080;9.006;2023-04-15T03:52:51;6.65;;;4.10;;
31262;SDS011;17892;52.080;9.006;2023-04-15T03:55:17;7.90;;;4.38;;
31262;SDS011;17892;52.080;9.006;2023-04-15T03:57:43;7.32;;;3.80;;
31262;SDS011;17892;52.080;9.006;2023-04-15T04:00:10;8.25;;;4.95;;
31262;SDS011;17892;52.080;9.006;2023-04-15T04:02:36;7.53;;;4.72;;
31262;SDS011;17892;52.080;9.006;2023-04-15T04:05:02;7.90;;;4.82;;
31262;SDS011;17892;52.080;9.006;2023-04-15T04:07:28;7.55;;;4.60;;
31262;SDS011;17892;52.080;9.006;2023-04-15T04:09:56;8.50;;;4.50;;
31262;SDS011;17892;52.080;9.006;2023-04-15T04:12:22;8.80;;;4.95;;
31262;SDS011;17892;52.080;9.006;2023-04-15T04:14:47;8.77;;;4.95;;
31262;SDS011;17892;52.080;9.006;2023-04-15T04:17:13;8.25;;;4.82;;
31262;SDS011;17892;52.080;9.006;2023-04-15T04:19:39;11.93;;;5.35;;
31262;SDS011;17892;52.080;9.006;2023-04-15T04:22:05;9.82;;;5.90;;
31262;SDS011;17892;52.080;9.006;2023-04-15T04:24:30;9.80;;;5.53;;
31262;SDS011;17892;52.080;9.006;2023-04-15T04:26:56;10.32;;;6.53;;
31262;SDS011;17892;52.080;9.006;2023-04-15T04:29:22;10.40;;;6.53;;
31262;SDS011;17892;52.080;9.006;2023-04-15T04:31:48;11.18;;;5.45;;
31262;SDS011;17892;52.080;9.006;2023-04-15T04:34:14;10.10;;;6.03;;
31262;SDS011;17892;52.080;9.006;2023-04-15T04:36:40;11.02;;;6.75;;
31262;SDS011;17892;52.080;9.006;2023-04-15T04:39:06;10.95;;;6.38;;
31262;SDS011;17892;52.080;9.006;2023-04-15T04:41:32;8.43;;;4.90;;
31262;SDS011;17892;52.080;9.006;2023-04-15T04:43:57;9.85;;;5.82;;
31262;SDS011;17892;52.080;9.006;2023-04-15T04:46:23;9.77;;;5.45;;
31262;SDS011;17892;52.080;9.006;2023-04-15T04:48:49;10.80;;;5.80;;
31262;SDS011;17892;52.080;9.006;2023-04-15T04:51:15;9.63;;;5.97;;
31262;SDS011;17892;52.080;9.006;2023-04-15T04:53:41;9.90;;;5.30;;
31262;SDS011;17892;52.080;9.006;2023-04-15T04:56:07;9.48;;;5.10;;
31262;SDS011;17892;52.080;9.006;2023-04-15T04:58:33;12.95;;;6.55;;
31262;SDS011;17892;52.080;9.006;2023-04-15T05:00:59;10.13;;;5.93;;
31262;SDS011;17892;52.080;9.006;2023-04-15T05:03:24;11.73;;;6.15;;
31262;SDS011;17892;52.080;9.006;2023-04-15T05:05:51;11.50;;;6.53;;
31262;SDS011;17892;52.080;9.006;2023-04-15T05:08:17;10.43;;;5.63;;
31262;SDS011;17892;52.080;9.006;2023-04-15T05:10:42;11.23;;;6.80;;
31262;SDS011;17892;52.080;9.006;2023-04-15T05:13:08;9.63;;;5.25;;
31262;SDS011;17892;52.080;9.006;2023-04-15T05:15:34;11.93;;;6.15;;
31262;SDS011;17892;52.080;9.006;2023-04-15T05:18:01;13.23;;;7.47;;
31262;SDS011;17892;52.080;9.006;2023-04-15T05:20:27;11.57;;;6.68;;
31262;SDS011;17892;52.080;9.006;2023-04-15T05:22:53;11.13;;;6.25;;
31262;SDS011;17892;52.080;9.006;2023-04-15T05:25:19;12.85;;;7.60;;
31262;SDS011;17892;52.080;9.006;2023-04-15T05:27:45;10.80;;;6.22;;
31262;SDS011;17892;52.080;9.006;2023-04-15T05:30:10;10.52;;;6.57;;
31262;SDS011;17892;52.080;9.006;2023-04-15T05:32:37;10.30;;;6.63;;
31262;SDS011;17892;52.080;9.006;2023-04-15T05:35:03;11.98;;;6.75;;
31262;SDS011;17892;52.080;9.006;2023-04-15T05:37:29;9.60;;;5.60;;
31262;SDS011;17892;52.080;9.006;2023-04-15T05:39:55;12.27;;;7.07;;
31262;SDS011;17892;52.080;9.006;2023-04-15T05:42:20;11.32;;;6.55;;
31262;SDS011;17892;52.080;9.006;2023-04-15T05:44:46;11.70;;;6.63;;
31262;SDS011;17892;52.080;9.006;2023-04-15T05:47:12;9.98;;;6.40;;
31262;SDS011;17892;52.080;9.006;2023-04-15T05:49:38;13.25;;;7.53;;
31262;SDS011;17892;52.080;9.006;2023-04-15T05:52:04;10.52;;;5.82;;
31262;SDS011;17892;52.080;9.006;2023-04-15T05:54:30;12.73;;;7.35;;
31262;SDS011;17892;52.080;9.006;2023-04-15T05:56:56;11.02;;;6.30;;
31262;SDS011;17892;52.080;9.006;2023-04-15T05:59:22;13.30;;;7.40;;
31262;SDS011;17892;52.080;9.006;2023-04-15T06:01:48;13.10;;;7.30;;
31262;SDS011;17892;52.080;9.006;2023-04-15T06:04:15;10.38;;;6.10;;
31262;SDS011;17892;52.080;9.006;2023-04-15T06:06:41;10.68;;;5.97;;
31262;SDS011;17892;52.080;9.006;2023-04-15T06:09:07;11.40;;;6.00;;
31262;SDS011;17892;52.080;9.006;2023-04-15T06:11:33;10.90;;;5.93;;
31262;SDS011;17892;52.080;9.006;2023-04-15T06:13:59;9.57;;;5.50;;
31262;SDS011;17892;52.080;9.006;2023-04-15T06:16:24;10.82;;;5.68;;
31262;SDS011;17892;52.080;9.006;2023-04-15T06:18:51;10.90;;;5.72;;
31262;SDS011;17892;52.080;9.006;2023-04-15T06:21:16;10.50;;;5.88;;
31262;SDS011;17892;52.080;9.006;2023-04-15T06:23:43;9.82;;;5.70;;
31262;SDS011;17892;52.080;9.006;2023-04-15T06:26:08;8.23;;;4.53;;
31262;SDS011;17892;52.080;9.006;2023-04-15T06:28:35;9.65;;;5.63;;
31262;SDS011;17892;52.080;9.006;2023-04-15T06:31:01;10.10;;;5.55;;
31262;SDS011;17892;52.080;9.006;2023-04-15T06:33:27;9.18;;;5.25;;
31262;SDS011;17892;52.080;9.006;2023-04-15T06:35:53;9.13;;;5.18;;
31262;SDS011;17892;52.080;9.006;2023-04-15T06:38:18;9.38;;;4.80;;
31262;SDS011;17892;52.080;9.006;2023-04-15T06:40:44;7.75;;;4.72;;
31262;SDS011;17892;52.080;9.006;2023-04-15T06:43:10;9.73;;;5.65;;
31262;SDS011;17892;52.080;9.006;2023-04-15T06:45:36;8.73;;;5.40;;
31262;SDS011;17892;52.080;9.006;2023-04-15T06:48:02;8.15;;;4.63;;
31262;SDS011;17892;52.080;9.006;2023-04-15T06:50:28;9.13;;;4.50;;
31262;SDS011;17892;52.080;9.006;2023-04-15T06:52:54;7.47;;;5.10;;
31262;SDS011;17892;52.080;9.006;2023-04-15T06:55:21;6.93;;;4.60;;
31262;SDS011;17892;52.080;9.006;2023-04-15T06:57:47;7.53;;;4.20;;
31262;SDS011;17892;52.080;9.006;2023-04-15T07:00:13;7.65;;;4.78;;
31262;SDS011;17892;52.080;9.006;2023-04-15T07:02:39;7.57;;;4.15;;
31262;SDS011;17892;52.080;9.006;2023-04-15T07:05:05;7.60;;;4.38;;
31262;SDS011;17892;52.080;9.006;2023-04-15T07:07:31;9.02;;;4.68;;
31262;SDS011;17892;52.080;9.006;2023-04-15T07:09:57;8.27;;;4.30;;
31262;SDS011;17892;52.080;9.006;2023-04-15T07:12:23;7.60;;;4.63;;
31262;SDS011;17892;52.080;9.006;2023-04-15T07:14:48;7.63;;;4.07;;
31262;SDS011;17892;52.080;9.006;2023-04-15T07:17:14;6.80;;;3.92;;
31262;SDS011;17892;52.080;9.006;2023-04-15T07:19:40;8.27;;;4.80;;
31262;SDS011;17892;52.080;9.006;2023-04-15T07:22:06;6.53;;;3.53;;
31262;SDS011;17892;52.080;9.006;2023-04-15T07:24:31;7.55;;;4.10;;
31262;SDS011;17892;52.080;9.006;2023-04-15T07:26:57;6.88;;;4.18;;
31262;SDS011;17892;52.080;9.006;2023-04-15T07:29:23;6.57;;;3.63;;
31262;SDS011;17892;52.080;9.006;2023-04-15T07:31:50;6.78;;;4.20;;
31262;SDS011;17892;52.080;9.006;2023-04-15T07:34:16;6.70;;;4.28;;
31262;SDS011;17892;52.080;9.006;2023-04-15T07:36:43;7.43;;;4.10;;
31262;SDS011;17892;52.080;9.006;2023-04-15T07:39:09;7.03;;;4.18;;
31262;SDS011;17892;52.080;9.006;2023-04-15T07:41:35;6.13;;;3.53;;
31262;SDS011;17892;52.080;9.006;2023-04-15T07:44:02;5.93;;;3.88;;
31262;SDS011;17892;52.080;9.006;2023-04-15T07:46:27;10.13;;;4.68;;
31262;SDS011;17892;52.080;9.006;2023-04-15T07:48:53;7.68;;;3.85;;
31262;SDS011;17892;52.080;9.006;2023-04-15T07:51:19;4.90;;;2.75;;
31262;SDS011;17892;52.080;9.006;2023-04-15T07:53:46;6.30;;;3.50;;
31262;SDS011;17892;52.080;9.006;2023-04-15T07:56:14;5.78;;;2.90;;
31262;SDS011;17892;52.080;9.006;2023-04-15T07:58:40;7.22;;;4.15;;
31262;SDS011;17892;52.080;9.006;2023-04-15T08:01:06;5.32;;;3.40;;
31262;SDS011;17892;52.080;9.006;2023-04-15T08:03:32;5.78;;;3.38;;
31262;SDS011;17892;52.080;9.006;2023-04-15T08:05:58;5.38;;;2.22;;
31262;SDS011;17892;52.080;9.006;2023-04-15T08:08:24;8.38;;;3.80;;
31262;SDS011;17892;52.080;9.006;2023-04-15T08:10:50;6.90;;;3.80;;
31262;SDS011;17892;52.080;9.006;2023-04-15T08:13:16;7.35;;;3.40;;
31262;SDS011;17892;52.080;9.006;2023-04-15T08:15:43;5.70;;;3.15;;
31262;SDS011;17892;52.080;9.006;2023-04-15T08:18:08;6.00;;;3.47;;
31262;SDS011;17892;52.080;9.006;2023-04-15T08:20:35;5.78;;;3.42;;
31262;SDS011;17892;52.080;9.006;2023-04-15T08:23:01;6.50;;;3.50;;
31262;SDS011;17892;52.080;9.006;2023-04-15T08:25:28;7.28;;;3.75;;
31262;SDS011;17892;52.080;9.006;2023-04-15T08:27:54;6.18;;;3.42;;
31262;SDS011;17892;52.080;9.006;2023-04-15T08:30:23;4.60;;;2.60;;
31262;SDS011;17892;52.080;9.006;2023-04-15T08:32:49;4.63;;;2.50;;
31262;SDS011;17892;52.080;9.006;2023-04-15T08:35:15;7.95;;;4.05;;
31262;SDS011;17892;52.080;9.006;2023-04-15T08:37:41;5.20;;;2.60;;
31262;SDS011;17892;52.080;9.006;2023-04-15T08:40:07;5.30;;;2.90;;
31262;SDS011;17892;52.080;9.006;2023-04-15T08:42:37;5.22;;;2.75;;
31262;SDS011;17892;52.080;9.006;2023-04-15T08:45:09;6.43;;;3.70;;
31262;SDS011;17892;52.080;9.006;2023-04-15T08:47:35;5.72;;;3.00;;
31262;SDS011;17892;52.080;9.006;2023-04-15T08:50:07;5.75;;;3.28;;
31262;SDS011;17892;52.080;9.006;2023-04-15T08:52:35;5.93;;;3.00;;
31262;SDS011;17892;52.080;9.006;2023-04-15T08:55:01;6.05;;;2.30;;
31262;SDS011;17892;52.080;9.006;2023-04-15T08:57:28;5.68;;;3.40;;
31262;SDS011;17892;52.080;9.006;2023-04-15T08:59:55;6.20;;;3.28;;
31262;SDS011;17892;52.080;9.006;2023-04-15T09:02:24;5.18;;;2.78;;
31262;SDS011;17892;52.080;9.006;2023-04-15T09:04:51;6.05;;;3.75;;
31262;SDS011;17892;52.080;9.006;2023-04-15T09:07:17;5.43;;;2.75;;
31262;SDS011;17892;52.080;9.006;2023-04-15T09:09:43;6.95;;;3.42;;
31262;SDS011;17892;52.080;9.006;2023-04-15T09:12:10;6.50;;;3.17;;
31262;SDS011;17892;52.080;9.006;2023-04-15T09:14:37;5.03;;;2.45;;
31262;SDS011;17892;52.080;9.006;2023-04-15T09:17:08;5.78;;;2.85;;
31262;SDS011;17892;52.080;9.006;2023-04-15T09:19:35;6.00;;;3.78;;
31262;SDS011;17892;52.080;9.006;2023-04-15T09:22:01;5.75;;;3.13;;
31262;SDS011;17892;52.080;9.006;2023-04-15T09:24:37;5.55;;;3.35;;
31262;SDS011;17892;52.080;9.006;2023-04-15T09:27:05;5.88;;;3.08;;
31262;SDS011;17892;52.080;9.006;2023-04-15T09:29:31;5.40;;;3.03;;
31262;SDS011;17892;52.080;9.006;2023-04-15T09:32:07;5.05;;;2.95;;
31262;SDS011;17892;52.080;9.006;2023-04-15T09:34:38;7.20;;;3.67;;
31262;SDS011;17892;52.080;9.006;2023-04-15T09:37:04;6.38;;;3.50;;
31262;SDS011;17892;52.080;9.006;2023-04-15T09:39:50;5.50;;;2.78;;
31262;SDS011;17892;52.080;9.006;2023-04-15T09:42:16;6.82;;;3.55;;
31262;SDS011;17892;52.080;9.006;2023-04-15T09:44:52;6.30;;;3.30;;
31262;SDS011;17892;52.080;9.006;2023-04-15T09:47:28;5.30;;;3.00;;
31262;SDS011;17892;52.080;9.006;2023-04-15T09:49:58;5.97;;;3.17;;
31262;SDS011;17892;52.080;9.006;2023-04-15T09:52:25;5.05;;;2.50;;
31262;SDS011;17892;52.080;9.006;2023-04-15T09:54:55;5.38;;;3.28;;
31262;SDS011;17892;52.080;9.006;2023-04-15T09:57:23;7.47;;;3.35;;
31262;SDS011;17892;52.080;9.006;2023-04-15T09:59:49;4.38;;;2.35;;
31262;SDS011;17892;52.080;9.006;2023-04-15T10:02:15;5.32;;;3.22;;
31262;SDS011;17892;52.080;9.006;2023-04-15T10:04:44;4.90;;;2.85;;
31262;SDS011;17892;52.080;9.006;2023-04-15T10:07:13;4.13;;;2.38;;
31262;SDS011;17892;52.080;9.006;2023-04-15T10:09:39;4.68;;;2.72;;
31262;SDS011;17892;52.080;9.006;2023-04-15T10:12:05;5.43;;;2.85;;
31262;SDS011;17892;52.080;9.006;2023-04-15T10:14:33;3.97;;;2.17;;
31262;SDS011;17892;52.080;9.006;2023-04-15T10:17:02;4.40;;;2.45;;
31262;SDS011;17892;52.080;9.006;2023-04-15T10:19:30;4.90;;;2.72;;
31262;SDS011;17892;52.080;9.006;2023-04-15T10:21:58;5.60;;;3.05;;
31262;SDS011;17892;52.080;9.006;2023-04-15T10:24:24;5.50;;;3.05;;
31262;SDS011;17892;52.080;9.006;2023-04-15T10:26:50;4.68;;;2.65;;
31262;SDS011;17892;52.080;9.006;2023-04-15T10:29:16;4.18;;;2.30;;
31262;SDS011;17892;52.080;9.006;2023-04-15T10:31:43;5.85;;;3.35;;
31262;SDS011;17892;52.080;9.006;2023-04-15T10:34:09;6.18;;;3.00;;
31262;SDS011;17892;52.080;9.006;2023-04-15T10:36:35;5.20;;;2.90;;
31262;SDS011;17892;52.080;9.006;2023-04-15T10:39:03;5.22;;;2.40;;
31262;SDS011;17892;52.080;9.006;2023-04-15T10:42:08;4.50;;;2.75;;
31262;SDS011;17892;52.080;9.006;2023-04-15T10:44:37;4.30;;;2.50;;
31262;SDS011;17892;52.080;9.006;2023-04-15T10:47:16;3.95;;;2.28;;
31262;SDS011;17892;52.080;9.006;2023-04-15T10:49:48;6.38;;;3.17;;
31262;SDS011;17892;52.080;9.006;2023-04-15T10:52:17;5.63;;;3.22;;
31262;SDS011;17892;52.080;9.006;2023-04-15T10:54:47;4.55;;;2.70;;
31262;SDS011;17892;52.080;9.006;2023-04-15T10:57:14;4.40;;;2.33;;
31262;SDS011;17892;52.080;9.006;2023-04-15T11:02:43;4.50;;;2.53;;
31262;SDS011;17892;52.080;9.006;2023-04-15T11:05:21;4.90;;;2.90;;
31262;SDS011;17892;52.080;9.006;2023-04-15T11:08:06;5.63;;;2.85;;
31262;SDS011;17892;52.080;9.006;2023-04-15T11:15:33;4.93;;;2.47;;
31262;SDS011;17892;52.080;9.006;2023-04-15T11:20:35;5.68;;;3.38;;
31262;SDS011;17892;52.080;9.006;2023-04-15T11:23:02;5.15;;;3.15;;
31262;SDS011;17892;52.080;9.006;2023-04-15T11:25:30;4.80;;;2.65;;
31262;SDS011;17892;52.080;9.006;2023-04-15T11:27:57;5.07;;;3.10;;
31262;SDS011;17892;52.080;9.006;2023-04-15T11:30:26;6.30;;;3.53;;
31262;SDS011;17892;52.080;9.006;2023-04-15T11:32:57;5.35;;;3.47;;
31262;SDS011;17892;52.080;9.006;2023-04-15T11:35:25;5.25;;;3.47;;
31262;SDS011;17892;52.080;9.006;2023-04-15T11:37:52;4.57;;;2.95;;
31262;SDS011;17892;52.080;9.006;2023-04-15T11:40:22;4.82;;;3.13;;
31262;SDS011;17892;52.080;9.006;2023-04-15T11:45:34;5.20;;;3.53;;
31262;SDS011;17892;52.080;9.006;2023-04-15T11:48:08;5.60;;;3.40;;
31262;SDS011;17892;52.080;9.006;2023-04-15T11:50:35;5.15;;;3.40;;
31262;SDS011;17892;52.080;9.006;2023-04-15T11:53:05;5.45;;;3.45;;
31262;SDS011;17892;52.080;9.006;2023-04-15T11:55:51;5.72;;;3.88;;
31262;SDS011;17892;52.080;9.006;2023-04-15T11:58:19;6.10;;;3.63;;
31262;SDS011;17892;52.080;9.006;2023-04-15T12:06:06;6.47;;;4.10;;
31262;SDS011;17892;52.080;9.006;2023-04-15T12:11:20;5.95;;;4.00;;
31262;SDS011;17892;52.080;9.006;2023-04-15T12:14:06;6.53;;;4.10;;
31262;SDS011;17892;52.080;9.006;2023-04-15T12:16:53;6.45;;;3.45;;
31262;SDS011;17892;52.080;9.006;2023-04-15T12:19:44;6.55;;;3.65;;
31262;SDS011;17892;52.080;9.006;2023-04-15T12:22:12;6.80;;;4.35;;
31262;SDS011;17892;52.080;9.006;2023-04-15T12:24:40;7.53;;;4.88;;
31262;SDS011;17892;52.080;9.006;2023-04-15T12:27:11;6.20;;;4.18;;
31262;SDS011;17892;52.080;9.006;2023-04-15T12:29:39;6.88;;;4.50;;
31262;SDS011;17892;52.080;9.006;2023-04-15T12:32:08;6.45;;;3.92;;
31262;SDS011;17892;52.080;9.006;2023-04-15T12:34:51;6.82;;;4.05;;
31262;SDS011;17892;52.080;9.006;2023-04-15T12:37:20;6.18;;;3.78;;
31262;SDS011;17892;52.080;9.006;2023-04-15T12:39:47;6.47;;;3.85;;
31262;SDS011;17892;52.080;9.006;2023-04-15T12:42:14;6.85;;;4.20;;
31262;SDS011;17892;52.080;9.006;2023-04-15T12:44:40;6.13;;;4.00;;
31262;SDS011;17892;52.080;9.006;2023-04-15T12:47:07;7.18;;;4.45;;
31262;SDS011;17892;52.080;9.006;2023-04-15T12:49:34;8.07;;;4.93;;
31262;SDS011;17892;52.080;9.006;2023-04-15T12:52:01;6.47;;;4.15;;
31262;SDS011;17892;52.080;9.006;2023-04-15T12:54:29;8.23;;;4.65;;
31262;SDS011;17892;52.080;9.006;2023-04-15T12:56:56;7.85;;;5.15;;
31262;SDS011;17892;52.080;9.006;2023-04-15T12:59:23;9.10;;;5.10;;
31262;SDS011;17892;52.080;9.006;2023-04-15T13:01:49;8.05;;;5.00;;
31262;SDS011;17892;52.080;9.006;2023-04-15T13:04:17;6.88;;;4.47;;
31262;SDS011;17892;52.080;9.006;2023-04-15T13:06:44;8.43;;;5.43;;
31262;SDS011;17892;52.080;9.006;2023-04-15T13:09:10;10.55;;;6.05;;
31262;SDS011;17892;52.080;9.006;2023-04-15T13:11:36;7.53;;;4.68;;
31262;SDS011;17892;52.080;9.006;2023-04-15T13:14:05;14.57;;;6.35;;
31262;SDS011;17892;52.080;9.006;2023-04-15T13:16:33;11.32;;;6.32;;
31262;SDS011;17892;52.080;9.006;2023-04-15T13:19:00;8.77;;;5.40;;
31262;SDS011;17892;52.080;9.006;2023-04-15T13:21:27;8.25;;;5.10;;
31262;SDS011;17892;52.080;9.006;2023-04-15T13:23:53;9.85;;;5.45;;
31262;SDS011;17892;52.080;9.006;2023-04-15T13:26:20;15.35;;;6.53;;
31262;SDS011;17892;52.080;9.006;2023-04-15T13:28:45;10.88;;;5.20;;
31262;SDS011;17892;52.080;9.006;2023-04-15T13:31:12;19.13;;;7.82;;
31262;SDS011;17892;52.080;9.006;2023-04-15T13:33:37;9.73;;;6.18;;
31262;SDS011;17892;52.080;9.006;2023-04-15T13:36:03;9.23;;;4.97;;
31262;SDS011;17892;52.080;9.006;2023-04-15T13:38:29;8.60;;;5.40;;
31262;SDS011;17892;52.080;9.006;2023-04-15T13:40:55;14.43;;;7.07;;
31262;SDS011;17892;52.080;9.006;2023-04-15T13:43:20;17.42;;;6.45;;
31262;SDS011;17892;52.080;9.006;2023-04-15T13:45:46;11.48;;;5.15;;
31262;SDS011;17892;52.080;9.006;2023-04-15T13:48:12;12.60;;;7.13;;
31262;SDS011;17892;52.080;9.006;2023-04-15T13:50:38;12.48;;;5.78;;
31262;SDS011;17892;52.080;9.006;2023-04-15T13:53:05;22.95;;;6.75;;
31262;SDS011;17892;52.080;9.006;2023-04-15T13:55:30;13.13;;;6.88;;
31262;SDS011;17892;52.080;9.006;2023-04-15T13:57:58;13.52;;;7.50;;
31262;SDS011;17892;52.080;9.006;2023-04-15T14:00:24;10.70;;;6.18;;
31262;SDS011;17892;52.080;9.006;2023-04-15T14:02:50;12.82;;;5.95;;
31262;SDS011;17892;52.080;9.006;2023-04-15T14:05:15;11.05;;;5.50;;
31262;SDS011;17892;52.080;9.006;2023-04-15T14:07:41;13.68;;;6.60;;
31262;SDS011;17892;52.080;9.006;2023-04-15T14:10:07;7.82;;;5.25;;
31262;SDS011;17892;52.080;9.006;2023-04-15T14:12:33;9.75;;;6.45;;
31262;SDS011;17892;52.080;9.006;2023-04-15T14:14:59;12.27;;;6.40;;
31262;SDS011;17892;52.080;9.006;2023-04-15T14:17:24;9.20;;;6.05;;
31262;SDS011;17892;52.080;9.006;2023-04-15T14:19:51;13.27;;;7.82;;
31262;SDS011;17892;52.080;9.006;2023-04-15T14:22:16;10.73;;;6.40;;
31262;SDS011;17892;52.080;9.006;2023-04-15T14:24:42;8.38;;;5.80;;
31262;SDS011;17892;52.080;9.006;2023-04-15T14:27:09;11.75;;;6.68;;
31262;SDS011;17892;52.080;9.006;2023-04-15T14:29:36;10.50;;;6.63;;
31262;SDS011;17892;52.080;9.006;2023-04-15T14:32:02;10.35;;;6.30;;
31262;SDS011;17892;52.080;9.006;2023-04-15T14:34:28;8.60;;;5.82;;
31262;SDS011;17892;52.080;9.006;2023-04-15T14:36:54;8.90;;;5.72;;
31262;SDS011;17892;52.080;9.006;2023-04-15T14:39:20;12.18;;;6.07;;
31262;SDS011;17892;52.080;9.006;2023-04-15T14:41:46;9.27;;;6.35;;
31262;SDS011;17892;52.080;9.006;2023-04-15T14:44:11;9.88;;;6.05;;
31262;SDS011;17892;52.080;9.006;2023-04-15T14:46:37;12.60;;;7.93;;
31262;SDS011;17892;52.080;9.006;2023-04-15T14:49:04;9.95;;;6.10;;
31262;SDS011;17892;52.080;9.006;2023-04-15T14:51:30;9.68;;;5.88;;
31262;SDS011;17892;52.080;9.006;2023-04-15T14:53:57;11.40;;;6.55;;
31262;SDS011;17892;52.080;9.006;2023-04-15T14:56:22;13.05;;;7.72;;
31262;SDS011;17892;52.080;9.006;2023-04-15T14:58:48;10.02;;;6.35;;
31262;SDS011;17892;52.080;9.006;2023-04-15T15:01:16;14.85;;;7.88;;
31262;SDS011;17892;52.080;9.006;2023-04-15T15:03:43;14.30;;;7.50;;
31262;SDS011;17892;52.080;9.006;2023-04-15T15:06:08;12.20;;;7.50;;
31262;SDS011;17892;52.080;9.006;2023-04-15T15:08:34;12.30;;;7.32;;